Hlavní strana
METAR-TAF:

METAR-TAF

Letiště :

Båtsfjord, Norsko

zeměpisná šířka: 70-38N, zeměpisná délka: 029-44E, výška: 10 m

Aktuální stav počasí

Zpráva byla vytvořena před 14 hodinami a 48 minutami, v 21:50 UTC
Jižní vítr 25 kt
Teplota -9°C
Vlhkost vzduchu 73%
Tlak 993 hPa
Viditelnost 10 km a více
(slabý) , sníh

METAR: ENBS 282150Z 19025KT 9999 -DRSN NSC M09/M13 Q0993

Čas: 13:38 (12:38 UTC)


TAF: chybějící

Stav a předpovědi počasí z více než 4 000 letišť (zprávy METAR a TAF).

Červené a žluté tečky na mapě představují dostupné meteorologické stanice.

Když kurzor umístíte na tečku, zobrazí se název stanice.

Pak kliknutím zobrazíte stav a předpověď počasí.

Chcete-li změnit mapu, kliknutím na zelené tlačítko se znaménkem +mapu přiblížíte, kliknutím na zelené tlačítko se znaménkem – mapu oddálíte a kliknutím na zelené šipky přejdete na sousední mapy.


METAR-TAF: